Darstellungsparameter: Aktuell verwendete Einstellungen:
Skalierung der Graphiken ... ?
xyx+y,   Skalierungsfaktor:      Skalierung: Modus: x, Faktor: 1
Darstellungszeitraum ... ?
Vom - - bis: - -   Zeitraum: 16.05.2010 - 16.05.2010
Min/Max/Avg-Anzeige ... ?
Zeige MMA aktuell
Zeige MMA Monat
Zeige MMA alles
Zeige --A aktuell
Zeige --A Monat
Zeige --A alles
Keine MMA-Anzeige
MMA:
Average (ber die Originaldaten)
MMA-Basis: 16.05.2010 - 16.05.2010
Quicknavigation für Darstellung... ?
Tage:      1T, 2T, 3T, 5T -1T -2T -3T -5T +1T +2T +3T +5T
Wochen: 1W, 2W, 3W -1W -2W -3W +1W +2W +3W
Monate: 1M, 3M, 6M -1M -3M -6M +1M +3M +6M
Jahre:    1J, 3J, 5J, 10J -1J -3J -5J -10J +1J +3J +5J +10J
Nutze für die Darstellung ... ?
Originaldaten oder Mittelwerte auf ...
Stundenbasis Tagesbasis Wochenbasis
Monatsbasis Jahresbasis      Datenbasis: Original-Daten
Darstellen als:
Statistik (Auto) Statistik J:M      Darstellung:
Zur Graphik,    zurück zur Übersicht aller Sensoren.
 
Tabellarische Datenbersicht: ?
 
Sensor: Nr:Datum:Temp:Abs-Feuchte:Windchill:Wind:
Aussen-T/F 1 16-05-2010 00:08:03 10.2 C 5.04 g/m*3 10.2 C 0 km/h
2 16-05-2010 00:20:03 10.1 C 5.3 g/m*3 10.1 C 0 km/h
3 16-05-2010 00:32:03 10.1 C 5.39 g/m*3 10.1 C 0 km/h
4 16-05-2010 00:44:03 10 C 5.45 g/m*3 10 C 0 km/h
5 16-05-2010 00:56:03 10.1 C 5.48 g/m*3 10.1 C 0 km/h
6 16-05-2010 01:08:03 10 C 5.54 g/m*3 10 C 0 km/h
7 16-05-2010 01:20:03 9.7 C 5.62 g/m*3 9.7 C 0 km/h
8 16-05-2010 01:32:03 9.3 C 5.66 g/m*3 9.3 C 0 km/h
9 16-05-2010 01:44:03 9 C 5.64 g/m*3 9 C 0 km/h
10 16-05-2010 01:56:03 8.7 C 5.88 g/m*3 8.7 C 0 km/h
11 16-05-2010 02:08:03 8.4 C 5.85 g/m*3 8.4 C 0 km/h
12 16-05-2010 02:20:03 8.2 C 5.86 g/m*3 8.2 C 0 km/h
13 16-05-2010 02:32:03 8 C 5.87 g/m*3 8 C 0 km/h
14 16-05-2010 02:44:04 7.8 C 5.96 g/m*3 7.8 C 0 km/h
15 16-05-2010 02:56:04 7.8 C 5.88 g/m*3 7.8 C 0 km/h
16 16-05-2010 03:08:04 7.6 C 5.88 g/m*3 7.6 C 0 km/h
17 16-05-2010 03:20:04 7.4 C 5.88 g/m*3 7.4 C 0 km/h
18 16-05-2010 03:32:04 7.4 C 5.88 g/m*3 7.4 C 0 km/h
19 16-05-2010 03:44:04 7.5 C 5.92 g/m*3 7.5 C 0 km/h
20 16-05-2010 03:56:04 7.5 C 5.92 g/m*3 7.5 C 0 km/h
21 16-05-2010 04:08:04 7.6 C 5.96 g/m*3 7.6 C 0 km/h
22 16-05-2010 04:20:04 7.6 C 5.88 g/m*3 7.6 C 0 km/h
23 16-05-2010 04:32:04 7.6 C 5.96 g/m*3 7.6 C 0 km/h
24 16-05-2010 04:44:04 7.6 C 5.96 g/m*3 7.6 C 0 km/h
25 16-05-2010 04:56:04 7.6 C 5.96 g/m*3 7.6 C 0 km/h
Sensor: Nr:Datum:Temp:Abs-Feuchte:Windchill:Wind:
Aussen-T/F 26 16-05-2010 05:08:04 7.6 C 5.96 g/m*3 7.6 C 0 km/h
27 16-05-2010 05:20:04 7.5 C 5.92 g/m*3 7.5 C 0 km/h
28 16-05-2010 05:32:04 7.2 C 5.89 g/m*3 7.2 C 0 km/h
29 16-05-2010 05:44:04 7 C 5.89 g/m*3 7 C 0 km/h
30 16-05-2010 05:56:04 7.2 C 5.97 g/m*3 7.2 C 0 km/h
31 16-05-2010 06:08:04 7.4 C 6.04 g/m*3 7.4 C 0 km/h
32 16-05-2010 06:20:04 7.4 C 5.96 g/m*3 7.4 C 0 km/h
33 16-05-2010 06:32:04 7.4 C 5.96 g/m*3 7.4 C 0 km/h
34 16-05-2010 06:44:04 7.4 C 5.96 g/m*3 7.4 C 0 km/h
35 16-05-2010 06:56:05 7.5 C 6 g/m*3 7.5 C 0 km/h
36 16-05-2010 07:08:05 7.7 C 6.08 g/m*3 7.7 C 0 km/h
37 16-05-2010 07:20:05 7.8 C 6.04 g/m*3 7.8 C 0 km/h
38 16-05-2010 07:32:05 7.9 C 6.08 g/m*3 7.9 C 0 km/h
39 16-05-2010 07:44:05 7.9 C 6.08 g/m*3 7.9 C 0 km/h
40 16-05-2010 07:56:05 7.9 C 6.08 g/m*3 7.9 C 0 km/h
41 16-05-2010 08:08:05 8 C 6.04 g/m*3 8 C 0 km/h
42 16-05-2010 08:20:05 8.2 C 6.2 g/m*3 8.2 C 0 km/h
43 16-05-2010 08:32:05 8.7 C 6.14 g/m*3 8.7 C 0 km/h
44 16-05-2010 08:44:05 9.1 C 6.03 g/m*3 9.1 C 0 km/h
45 16-05-2010 08:56:05 9.6 C 6.05 g/m*3 9.6 C 0 km/h
46 16-05-2010 09:08:02 10.2 C 5.8 g/m*3 10.2 C 0 km/h
47 16-05-2010 09:20:01 10.6 C 4.98 g/m*3 10.6 C 0 km/h
48 16-05-2010 09:32:02 11 C 4.7 g/m*3 11 C 0 km/h
49 16-05-2010 09:44:02 11.3 C 4.39 g/m*3 11.3 C 0 km/h
50 16-05-2010 09:56:02 11.7 C 4.39 g/m*3 11.7 C 0 km/h
Sensor: Nr:Datum:Temp:Abs-Feuchte:Windchill:Wind:
Aussen-T/F 51 16-05-2010 10:08:02 11.9 C 4.24 g/m*3 11.9 C 0 km/h
52 16-05-2010 10:20:01 12.2 C 4.1 g/m*3 12.2 C 0 km/h
53 16-05-2010 10:32:02 12.4 C 4.15 g/m*3 12.4 C 0 km/h
54 16-05-2010 10:44:02 13 C 4.31 g/m*3 13 C 0 km/h
55 16-05-2010 10:56:01 13.3 C 4.16 g/m*3 13.3 C 0 km/h
56 16-05-2010 11:08:02 13.7 C 4.03 g/m*3 13.7 C 0 km/h
57 16-05-2010 11:20:02 14.3 C 4.05 g/m*3 14.3 C 0 km/h
58 16-05-2010 11:32:02 15.4 C 4.07 g/m*3 15.4 C 0 km/h
59 16-05-2010 11:44:02 15.4 C 3.94 g/m*3 15.4 C 0 km/h
60 16-05-2010 11:56:01 15.4 C 3.81 g/m*3 15.4 C 0 km/h
61 16-05-2010 12:08:02 15.9 C 3.52 g/m*3 15.9 C 0 km/h
62 16-05-2010 12:20:02 16.1 C 3.84 g/m*3 16.1 C 0 km/h
63 16-05-2010 12:32:02 17.9 C 3.82 g/m*3 17.9 C 0 km/h
64 16-05-2010 12:44:02 17.2 C 3.37 g/m*3 17.2 C 0 km/h
65 16-05-2010 12:56:01 16.1 C 3.43 g/m*3 16.1 C 0 km/h
66 16-05-2010 13:08:02 18.3 C 3.6 g/m*3 18.3 C 0 km/h
67 16-05-2010 13:20:02 17.3 C 3.39 g/m*3 17.3 C 0 km/h
68 16-05-2010 13:32:01 17.4 C 3.41 g/m*3 17.4 C 0 km/h
69 16-05-2010 13:44:01 18 C 3.69 g/m*3 18 C 0 km/h
70 16-05-2010 13:56:02 17.3 C 3.54 g/m*3 17.3 C 0 km/h
71 16-05-2010 14:08:01 16.7 C 3.55 g/m*3 16.7 C 0 km/h
72 16-05-2010 14:20:02 18.4 C 3.93 g/m*3 18.4 C 0 km/h
73 16-05-2010 14:32:02 18.4 C 3.3 g/m*3 18.4 C 0 km/h
74 16-05-2010 14:44:02 17.9 C 3.51 g/m*3 17.9 C 0 km/h
75 16-05-2010 14:56:02 18.2 C 3.42 g/m*3 18.2 C 0 km/h
Sensor: Nr:Datum:Temp:Abs-Feuchte:Windchill:Wind:
Aussen-T/F 76 16-05-2010 15:08:02 19 C 3.26 g/m*3 19 C 0 km/h
77 16-05-2010 15:20:02 19.3 C 3.32 g/m*3 19.3 C 0 km/h
78 16-05-2010 15:32:02 19.8 C 3.42 g/m*3 19.8 C 0 km/h
79 16-05-2010 15:44:02 19.1 C 3.28 g/m*3 19.1 C 0 km/h
80 16-05-2010 15:56:02 20.3 C 3.52 g/m*3 20.3 C 0 km/h
81 16-05-2010 16:08:02 21 C 3.66 g/m*3 21 C 0 km/h
82 16-05-2010 16:20:01 20.1 C 3.48 g/m*3 20.1 C 0 km/h
83 16-05-2010 16:32:02 20.4 C 3.54 g/m*3 20.4 C 0 km/h
84 16-05-2010 16:44:02 20 C 3.46 g/m*3 20 C 0 km/h
85 16-05-2010 16:56:02 21.2 C 3.71 g/m*3 21.2 C 0 km/h
86 16-05-2010 17:08:02 21.7 C 3.82 g/m*3 21.7 C 0 km/h
87 16-05-2010 17:20:02 21.1 C 3.69 g/m*3 21.1 C 0 km/h
88 16-05-2010 17:32:02 21.5 C 3.77 g/m*3 21.5 C 0 km/h
89 16-05-2010 17:44:02 21.4 C 3.75 g/m*3 21.4 C 0 km/h
90 16-05-2010 17:56:02 20.8 C 3.62 g/m*3 20.8 C 0 km/h
91 16-05-2010 18:08:02 20.8 C 3.62 g/m*3 20.8 C 0 km/h
92 16-05-2010 18:20:02 20 C 3.46 g/m*3 20 C 0 km/h
93 16-05-2010 18:32:02 19.5 C 3.52 g/m*3 19.5 C 0 km/h
94 16-05-2010 18:44:02 18.9 C 3.56 g/m*3 18.9 C 0 km/h
95 16-05-2010 18:56:02 19.9 C 3.44 g/m*3 19.9 C 0 km/h
96 16-05-2010 19:08:02 19.7 C 3.57 g/m*3 19.7 C 0 km/h
97 16-05-2010 19:20:03 19.5 C 3.52 g/m*3 19.5 C 0 km/h
98 16-05-2010 19:32:02 18.6 C 3.5 g/m*3 18.6 C 0 km/h
99 16-05-2010 19:44:02 18.2 C 3.89 g/m*3 18.2 C 0 km/h
100 16-05-2010 19:56:02 18.3 C 3.91 g/m*3 18.3 C 0 km/h
Sensor: Nr:Datum:Temp:Abs-Feuchte:Windchill:Wind:
Aussen-T/F 101 16-05-2010 20:08:02 19.3 C 4.15 g/m*3 19.3 C 0 km/h
102 16-05-2010 20:20:02 19.3 C 4.48 g/m*3 19.3 C 0 km/h
103 16-05-2010 20:32:02 18.2 C 4.51 g/m*3 18.2 C 0 km/h
104 16-05-2010 20:44:02 17 C 4.63 g/m*3 17 C 0 km/h
105 16-05-2010 20:56:02 16 C 4.5 g/m*3 16 C 0 km/h
106 16-05-2010 21:08:02 15.1 C 4.52 g/m*3 15.1 C 0 km/h
107 16-05-2010 21:20:02 14.6 C 4.63 g/m*3 14.6 C 0 km/h
108 16-05-2010 21:32:02 14.2 C 4.76 g/m*3 14.2 C 0 km/h
109 16-05-2010 21:44:02 13.9 C 4.92 g/m*3 13.9 C 0 km/h
110 16-05-2010 21:56:02 13.6 C 5.18 g/m*3 13.6 C 0 km/h
111 16-05-2010 22:08:02 13.2 C 5.05 g/m*3 13.2 C 0 km/h
112 16-05-2010 22:20:03 12.6 C 5.31 g/m*3 12.6 C 0 km/h
113 16-05-2010 22:33:03 12.3 C 5.32 g/m*3 12.3 C 0 km/h
114 16-05-2010 22:45:03 11.9 C 5.4 g/m*3 11.9 C 0 km/h
115 16-05-2010 22:57:03 11.8 C 5.58 g/m*3 11.8 C 0 km/h
116 16-05-2010 23:09:03 11.4 C 5.65 g/m*3 11.4 C 0 km/h
117 16-05-2010 23:21:03 11 C 5.71 g/m*3 11 C 0 km/h
118 16-05-2010 23:33:03 10.7 C 5.8 g/m*3 10.7 C 0 km/h
119 16-05-2010 23:45:03 10.7 C 5.89 g/m*3 10.7 C 0 km/h
120 16-05-2010 23:57:03 10.5 C 6.01 g/m*3 10.5 C 0 km/h

Legende:
   Min
   Max


Maximal/Minimal-Werte vom 16.05.2010 - 16.05.2010

Sensor Min Max Avg
Temp
(Aussen-T/F)
7 °C
16-05-2010  05:44:04
21.7 °C
16-05-2010  17:08:02
13.33 °C
Abs-Feuchte
(Aussen-T/F)
3.26 g/m*3
16-05-2010  15:08:02
6.2 g/m*3
16-05-2010  08:20:05
4.74 g/m*3
Windchill
(Aussen-T/F)
7 C
16-05-2010  05:44:04
21.7 C
16-05-2010  17:08:02
13.22 C

Die Daten stammen von einer Davis Vantage Pro 2 Wetter-Station und werden unter Linux mit der Software wview2wettercgi und aufbereitet. Alle Angaben erfolgen ohne Gewähr für ihre Vollständigkeit oder Richtigkeit.
Kontakt: Rainer Krienke krienke@uni-koblenz.de . Meine Webseiten an der Uni Koblenz oder privat.
Version: $Revision: 0.78 $